sensor_id;sensor_type;location;lat;lon;timestamp;pressure;altitude;pressure_sealevel;temperature
19666;BMP180;9980;51.020;7.772;2022-11-15T00:00:52;96980.00;;;13.90
19666;BMP180;9980;51.020;7.772;2022-11-15T00:03:37;96975.00;;;14.00
19666;BMP180;9980;51.020;7.772;2022-11-15T00:06:21;96978.00;;;14.00
19666;BMP180;9980;51.020;7.772;2022-11-15T00:09:06;96970.00;;;14.00
19666;BMP180;9980;51.020;7.772;2022-11-15T00:11:51;96972.00;;;14.00
19666;BMP180;9980;51.020;7.772;2022-11-15T00:14:36;96985.00;;;14.00
19666;BMP180;9980;51.020;7.772;2022-11-15T00:17:21;96977.00;;;14.00
19666;BMP180;9980;51.020;7.772;2022-11-15T00:20:06;96973.00;;;14.00
19666;BMP180;9980;51.020;7.772;2022-11-15T00:22:51;96967.00;;;14.00
19666;BMP180;9980;51.020;7.772;2022-11-15T00:25:36;96976.00;;;14.00
19666;BMP180;9980;51.020;7.772;2022-11-15T00:28:20;96980.00;;;14.10
19666;BMP180;9980;51.020;7.772;2022-11-15T00:31:12;96982.00;;;14.10
19666;BMP180;9980;51.020;7.772;2022-11-15T00:33:57;96968.00;;;14.10
19666;BMP180;9980;51.020;7.772;2022-11-15T00:36:41;96970.00;;;14.10
19666;BMP180;9980;51.020;7.772;2022-11-15T00:39:26;96978.00;;;14.10
19666;BMP180;9980;51.020;7.772;2022-11-15T00:42:10;96975.00;;;14.10
19666;BMP180;9980;51.020;7.772;2022-11-15T00:44:55;96968.00;;;14.10
19666;BMP180;9980;51.020;7.772;2022-11-15T00:47:39;96980.00;;;14.20
19666;BMP180;9980;51.020;7.772;2022-11-15T00:50:24;96972.00;;;14.20
19666;BMP180;9980;51.020;7.772;2022-11-15T00:53:08;96972.00;;;14.20
19666;BMP180;9980;51.020;7.772;2022-11-15T00:55:53;96977.00;;;14.20
19666;BMP180;9980;51.020;7.772;2022-11-15T00:58:38;96971.00;;;14.20
19666;BMP180;9980;51.020;7.772;2022-11-15T01:01:23;96952.00;;;14.20
19666;BMP180;9980;51.020;7.772;2022-11-15T01:04:08;96976.00;;;14.20
19666;BMP180;9980;51.020;7.772;2022-11-15T01:06:53;96969.00;;;14.20
19666;BMP180;9980;51.020;7.772;2022-11-15T01:09:38;96968.00;;;14.20
19666;BMP180;9980;51.020;7.772;2022-11-15T01:12:22;96964.00;;;14.20
19666;BMP180;9980;51.020;7.772;2022-11-15T01:15:07;96946.00;;;14.20
19666;BMP180;9980;51.020;7.772;2022-11-15T01:17:52;96975.00;;;14.20
19666;BMP180;9980;51.020;7.772;2022-11-15T01:20:43;96955.00;;;14.20
19666;BMP180;9980;51.020;7.772;2022-11-15T01:23:28;96982.00;;;14.20
19666;BMP180;9980;51.020;7.772;2022-11-15T01:26:15;96975.00;;;14.20
19666;BMP180;9980;51.020;7.772;2022-11-15T01:28:59;96971.00;;;14.20
19666;BMP180;9980;51.020;7.772;2022-11-15T01:31:44;96965.00;;;14.20
19666;BMP180;9980;51.020;7.772;2022-11-15T01:34:29;96981.00;;;14.30
19666;BMP180;9980;51.020;7.772;2022-11-15T01:37:13;96972.00;;;14.30
19666;BMP180;9980;51.020;7.772;2022-11-15T01:39:58;96958.00;;;14.30
19666;BMP180;9980;51.020;7.772;2022-11-15T01:42:42;96955.00;;;14.30
19666;BMP180;9980;51.020;7.772;2022-11-15T01:45:27;96970.00;;;14.40
19666;BMP180;9980;51.020;7.772;2022-11-15T01:48:12;96953.00;;;14.40
19666;BMP180;9980;51.020;7.772;2022-11-15T01:50:58;96953.00;;;14.40
19666;BMP180;9980;51.020;7.772;2022-11-15T01:53:49;96947.00;;;14.40
19666;BMP180;9980;51.020;7.772;2022-11-15T01:56:49;96945.00;;;14.50
19666;BMP180;9980;51.020;7.772;2022-11-15T01:59:38;96934.00;;;14.50
19666;BMP180;9980;51.020;7.772;2022-11-15T02:02:25;96918.00;;;14.50
19666;BMP180;9980;51.020;7.772;2022-11-15T02:05:10;96926.00;;;14.60
19666;BMP180;9980;51.020;7.772;2022-11-15T02:07:56;96925.00;;;14.60
19666;BMP180;9980;51.020;7.772;2022-11-15T02:10:41;96913.00;;;14.60
19666;BMP180;9980;51.020;7.772;2022-11-15T02:13:26;96936.00;;;14.70
19666;BMP180;9980;51.020;7.772;2022-11-15T02:16:39;96922.00;;;14.70
19666;BMP180;9980;51.020;7.772;2022-11-15T02:19:40;96917.00;;;14.70
19666;BMP180;9980;51.020;7.772;2022-11-15T02:26:44;96924.00;;;14.70
19666;BMP180;9980;51.020;7.772;2022-11-15T02:36:15;96896.00;;;14.70
19666;BMP180;9980;51.020;7.772;2022-11-15T02:39:37;96901.00;;;14.80
19666;BMP180;9980;51.020;7.772;2022-11-15T02:42:32;96895.00;;;14.80
19666;BMP180;9980;51.020;7.772;2022-11-15T02:45:46;96895.00;;;14.80
19666;BMP180;9980;51.020;7.772;2022-11-15T02:48:34;96880.00;;;14.80
19666;BMP180;9980;51.020;7.772;2022-11-15T02:51:20;96885.00;;;14.90
19666;BMP180;9980;51.020;7.772;2022-11-15T02:54:05;96891.00;;;14.90
19666;BMP180;9980;51.020;7.772;2022-11-15T02:56:54;96892.00;;;14.90
19666;BMP180;9980;51.020;7.772;2022-11-15T03:00:02;96871.00;;;14.90
19666;BMP180;9980;51.020;7.772;2022-11-15T03:12:25;96875.00;;;14.90
19666;BMP180;9980;51.020;7.772;2022-11-15T03:15:26;96871.00;;;14.90
19666;BMP180;9980;51.020;7.772;2022-11-15T03:18:27;96876.00;;;14.90
19666;BMP180;9980;51.020;7.772;2022-11-15T03:21:15;96877.00;;;15.00
19666;BMP180;9980;51.020;7.772;2022-11-15T03:24:05;96871.00;;;15.00
19666;BMP180;9980;51.020;7.772;2022-11-15T03:26:53;96879.00;;;15.00
19666;BMP180;9980;51.020;7.772;2022-11-15T03:29:46;96877.00;;;15.00
19666;BMP180;9980;51.020;7.772;2022-11-15T03:32:40;96870.00;;;15.00
19666;BMP180;9980;51.020;7.772;2022-11-15T03:35:32;96874.00;;;15.00
19666;BMP180;9980;51.020;7.772;2022-11-15T03:38:25;96887.00;;;15.00
19666;BMP180;9980;51.020;7.772;2022-11-15T03:41:35;96879.00;;;15.00
19666;BMP180;9980;51.020;7.772;2022-11-15T03:44:48;96877.00;;;15.00
19666;BMP180;9980;51.020;7.772;2022-11-15T03:47:59;96867.00;;;15.00
19666;BMP180;9980;51.020;7.772;2022-11-15T03:50:47;96874.00;;;15.00
19666;BMP180;9980;51.020;7.772;2022-11-15T03:53:32;96876.00;;;15.00
19666;BMP180;9980;51.020;7.772;2022-11-15T03:56:18;96874.00;;;15.00
19666;BMP180;9980;51.020;7.772;2022-11-15T03:59:02;96874.00;;;15.00
19666;BMP180;9980;51.020;7.772;2022-11-15T04:01:47;96871.00;;;15.00
19666;BMP180;9980;51.020;7.772;2022-11-15T04:04:31;96875.00;;;15.00
19666;BMP180;9980;51.020;7.772;2022-11-15T04:07:16;96879.00;;;15.00
19666;BMP180;9980;51.020;7.772;2022-11-15T04:10:02;96876.00;;;15.10
19666;BMP180;9980;51.020;7.772;2022-11-15T04:12:51;96861.00;;;15.10
19666;BMP180;9980;51.020;7.772;2022-11-15T04:15:36;96876.00;;;15.10
19666;BMP180;9980;51.020;7.772;2022-11-15T04:18:21;96878.00;;;15.10
19666;BMP180;9980;51.020;7.772;2022-11-15T04:21:08;96869.00;;;15.10
19666;BMP180;9980;51.020;7.772;2022-11-15T04:24:11;96873.00;;;15.10
19666;BMP180;9980;51.020;7.772;2022-11-15T04:26:59;96870.00;;;15.10
19666;BMP180;9980;51.020;7.772;2022-11-15T04:29:43;96850.00;;;15.10
19666;BMP180;9980;51.020;7.772;2022-11-15T04:32:28;96856.00;;;15.10
19666;BMP180;9980;51.020;7.772;2022-11-15T04:35:13;96852.00;;;15.10
19666;BMP180;9980;51.020;7.772;2022-11-15T04:37:58;96870.00;;;15.10
19666;BMP180;9980;51.020;7.772;2022-11-15T04:40:43;96864.00;;;15.10
19666;BMP180;9980;51.020;7.772;2022-11-15T04:43:28;96857.00;;;15.10
19666;BMP180;9980;51.020;7.772;2022-11-15T04:46:14;96866.00;;;15.10
19666;BMP180;9980;51.020;7.772;2022-11-15T04:48:58;96873.00;;;15.10
19666;BMP180;9980;51.020;7.772;2022-11-15T04:51:44;96855.00;;;15.10
19666;BMP180;9980;51.020;7.772;2022-11-15T04:54:29;96861.00;;;15.10
19666;BMP180;9980;51.020;7.772;2022-11-15T04:57:14;96858.00;;;15.10
19666;BMP180;9980;51.020;7.772;2022-11-15T04:59:59;96856.00;;;15.10
19666;BMP180;9980;51.020;7.772;2022-11-15T05:02:43;96869.00;;;15.10
19666;BMP180;9980;51.020;7.772;2022-11-15T05:05:46;96862.00;;;15.10
19666;BMP180;9980;51.020;7.772;2022-11-15T05:08:32;96865.00;;;15.10
19666;BMP180;9980;51.020;7.772;2022-11-15T05:11:17;96861.00;;;15.10
19666;BMP180;9980;51.020;7.772;2022-11-15T05:14:01;96875.00;;;15.10
19666;BMP180;9980;51.020;7.772;2022-11-15T05:16:46;96858.00;;;15.10
19666;BMP180;9980;51.020;7.772;2022-11-15T05:19:32;96856.00;;;15.10
19666;BMP180;9980;51.020;7.772;2022-11-15T05:22:16;96869.00;;;15.10
19666;BMP180;9980;51.020;7.772;2022-11-15T05:25:01;96860.00;;;15.10
19666;BMP180;9980;51.020;7.772;2022-11-15T05:27:45;96854.00;;;15.10
19666;BMP180;9980;51.020;7.772;2022-11-15T05:30:30;96855.00;;;15.10
19666;BMP180;9980;51.020;7.772;2022-11-15T05:33:15;96855.00;;;15.10
19666;BMP180;9980;51.020;7.772;2022-11-15T05:36:43;96861.00;;;15.10
19666;BMP180;9980;51.020;7.772;2022-11-15T05:39:29;96860.00;;;15.10
19666;BMP180;9980;51.020;7.772;2022-11-15T05:42:16;96860.00;;;15.10
19666;BMP180;9980;51.020;7.772;2022-11-15T05:45:05;96858.00;;;15.10
19666;BMP180;9980;51.020;7.772;2022-11-15T05:47:53;96854.00;;;15.10
19666;BMP180;9980;51.020;7.772;2022-11-15T05:50:44;96870.00;;;15.10
19666;BMP180;9980;51.020;7.772;2022-11-15T05:53:30;96860.00;;;15.10
19666;BMP180;9980;51.020;7.772;2022-11-15T05:56:16;96847.00;;;15.10
19666;BMP180;9980;51.020;7.772;2022-11-15T05:59:01;96854.00;;;15.20
19666;BMP180;9980;51.020;7.772;2022-11-15T06:01:47;96862.00;;;15.10
19666;BMP180;9980;51.020;7.772;2022-11-15T06:04:31;96865.00;;;15.10
19666;BMP180;9980;51.020;7.772;2022-11-15T06:07:16;96870.00;;;15.10
19666;BMP180;9980;51.020;7.772;2022-11-15T06:10:02;96855.00;;;15.10
19666;BMP180;9980;51.020;7.772;2022-11-15T06:12:47;96866.00;;;15.10
19666;BMP180;9980;51.020;7.772;2022-11-15T06:15:33;96868.00;;;15.10
19666;BMP180;9980;51.020;7.772;2022-11-15T06:18:18;96875.00;;;15.20
19666;BMP180;9980;51.020;7.772;2022-11-15T06:21:04;96860.00;;;15.20
19666;BMP180;9980;51.020;7.772;2022-11-15T06:23:49;96862.00;;;15.20
19666;BMP180;9980;51.020;7.772;2022-11-15T06:26:34;96869.00;;;15.20
19666;BMP180;9980;51.020;7.772;2022-11-15T06:29:19;96860.00;;;15.20
19666;BMP180;9980;51.020;7.772;2022-11-15T06:32:04;96864.00;;;15.20
19666;BMP180;9980;51.020;7.772;2022-11-15T06:34:48;96874.00;;;15.20
19666;BMP180;9980;51.020;7.772;2022-11-15T06:37:34;96869.00;;;15.20
19666;BMP180;9980;51.020;7.772;2022-11-15T06:40:18;96861.00;;;15.20
19666;BMP180;9980;51.020;7.772;2022-11-15T06:43:05;96870.00;;;15.20
19666;BMP180;9980;51.020;7.772;2022-11-15T06:45:50;96889.00;;;15.20
19666;BMP180;9980;51.020;7.772;2022-11-15T06:48:35;96877.00;;;15.20
19666;BMP180;9980;51.020;7.772;2022-11-15T06:51:20;96895.00;;;15.20
19666;BMP180;9980;51.020;7.772;2022-11-15T06:54:05;96907.00;;;15.20
19666;BMP180;9980;51.020;7.772;2022-11-15T06:56:49;96896.00;;;15.20
19666;BMP180;9980;51.020;7.772;2022-11-15T06:59:34;96905.00;;;15.20
19666;BMP180;9980;51.020;7.772;2022-11-15T07:02:24;96891.00;;;15.10
19666;BMP180;9980;51.020;7.772;2022-11-15T07:05:10;96913.00;;;15.10
19666;BMP180;9980;51.020;7.772;2022-11-15T07:07:57;96911.00;;;15.10
19666;BMP180;9980;51.020;7.772;2022-11-15T07:10:42;96898.00;;;15.10
19666;BMP180;9980;51.020;7.772;2022-11-15T07:13:29;96913.00;;;15.10
19666;BMP180;9980;51.020;7.772;2022-11-15T07:16:18;96907.00;;;15.10
19666;BMP180;9980;51.020;7.772;2022-11-15T07:19:02;96914.00;;;15.10
19666;BMP180;9980;51.020;7.772;2022-11-15T07:21:47;96895.00;;;15.10
19666;BMP180;9980;51.020;7.772;2022-11-15T07:24:32;96898.00;;;15.10
19666;BMP180;9980;51.020;7.772;2022-11-15T07:27:17;96908.00;;;15.10
19666;BMP180;9980;51.020;7.772;2022-11-15T07:30:02;96900.00;;;15.10
19666;BMP180;9980;51.020;7.772;2022-11-15T07:32:55;96916.00;;;15.10
19666;BMP180;9980;51.020;7.772;2022-11-15T07:35:39;96902.00;;;15.10
19666;BMP180;9980;51.020;7.772;2022-11-15T07:38:24;96899.00;;;15.10
19666;BMP180;9980;51.020;7.772;2022-11-15T07:41:09;96895.00;;;15.10
19666;BMP180;9980;51.020;7.772;2022-11-15T07:43:54;96901.00;;;15.10
19666;BMP180;9980;51.020;7.772;2022-11-15T07:46:39;96900.00;;;15.20
19666;BMP180;9980;51.020;7.772;2022-11-15T07:49:23;96897.00;;;15.10
19666;BMP180;9980;51.020;7.772;2022-11-15T07:52:08;96899.00;;;15.20
19666;BMP180;9980;51.020;7.772;2022-11-15T07:54:52;96909.00;;;15.20
19666;BMP180;9980;51.020;7.772;2022-11-15T07:57:37;96900.00;;;15.20
19666;BMP180;9980;51.020;7.772;2022-11-15T08:00:22;96908.00;;;15.20
19666;BMP180;9980;51.020;7.772;2022-11-15T08:03:09;96908.00;;;15.20
19666;BMP180;9980;51.020;7.772;2022-11-15T08:05:54;96926.00;;;15.20
19666;BMP180;9980;51.020;7.772;2022-11-15T08:08:39;96899.00;;;15.20
19666;BMP180;9980;51.020;7.772;2022-11-15T08:11:24;96902.00;;;15.20
19666;BMP180;9980;51.020;7.772;2022-11-15T08:14:09;96891.00;;;15.20
19666;BMP180;9980;51.020;7.772;2022-11-15T08:16:55;96894.00;;;15.20
19666;BMP180;9980;51.020;7.772;2022-11-15T08:19:39;96894.00;;;15.20
19666;BMP180;9980;51.020;7.772;2022-11-15T08:22:24;96899.00;;;15.20
19666;BMP180;9980;51.020;7.772;2022-11-15T08:25:08;96893.00;;;15.20
19666;BMP180;9980;51.020;7.772;2022-11-15T08:27:55;96899.00;;;15.20
19666;BMP180;9980;51.020;7.772;2022-11-15T08:30:42;96887.00;;;15.20
19666;BMP180;9980;51.020;7.772;2022-11-15T08:33:27;96894.00;;;15.30
19666;BMP180;9980;51.020;7.772;2022-11-15T08:36:16;96893.00;;;15.30
19666;BMP180;9980;51.020;7.772;2022-11-15T08:39:01;96885.00;;;15.30
19666;BMP180;9980;51.020;7.772;2022-11-15T08:41:45;96894.00;;;15.30
19666;BMP180;9980;51.020;7.772;2022-11-15T08:44:30;96888.00;;;15.30
19666;BMP180;9980;51.020;7.772;2022-11-15T08:47:14;96876.00;;;15.40
19666;BMP180;9980;51.020;7.772;2022-11-15T08:49:59;96871.00;;;15.50
19666;BMP180;9980;51.020;7.772;2022-11-15T08:52:44;96884.00;;;15.50
19666;BMP180;9980;51.020;7.772;2022-11-15T08:55:29;96876.00;;;15.50
19666;BMP180;9980;51.020;7.772;2022-11-15T08:58:13;96868.00;;;15.60
19666;BMP180;9980;51.020;7.772;2022-11-15T09:00:58;96876.00;;;15.60
19666;BMP180;9980;51.020;7.772;2022-11-15T09:03:42;96866.00;;;15.60
19666;BMP180;9980;51.020;7.772;2022-11-15T09:06:27;96860.00;;;15.70
19666;BMP180;9980;51.020;7.772;2022-11-15T09:09:12;96876.00;;;15.70
19666;BMP180;9980;51.020;7.772;2022-11-15T09:11:57;96871.00;;;15.70
19666;BMP180;9980;51.020;7.772;2022-11-15T09:14:47;96861.00;;;15.70
19666;BMP180;9980;51.020;7.772;2022-11-15T09:17:31;96858.00;;;15.70
19666;BMP180;9980;51.020;7.772;2022-11-15T09:20:16;96863.00;;;15.70
19666;BMP180;9980;51.020;7.772;2022-11-15T09:23:03;96867.00;;;15.70
19666;BMP180;9980;51.020;7.772;2022-11-15T09:25:48;96856.00;;;15.80
19666;BMP180;9980;51.020;7.772;2022-11-15T09:28:33;96855.00;;;15.80
19666;BMP180;9980;51.020;7.772;2022-11-15T09:31:19;96859.00;;;15.80
19666;BMP180;9980;51.020;7.772;2022-11-15T09:34:06;96836.00;;;15.80
19666;BMP180;9980;51.020;7.772;2022-11-15T09:36:51;96848.00;;;15.90
19666;BMP180;9980;51.020;7.772;2022-11-15T09:39:35;96836.00;;;15.90
19666;BMP180;9980;51.020;7.772;2022-11-15T09:43:00;96842.00;;;15.90
19666;BMP180;9980;51.020;7.772;2022-11-15T09:49:00;96826.00;;;16.00
19666;BMP180;9980;51.020;7.772;2022-11-15T09:51:56;96832.00;;;16.10
19666;BMP180;9980;51.020;7.772;2022-11-15T09:54:39;96843.00;;;16.10
19666;BMP180;9980;51.020;7.772;2022-11-15T09:57:41;96826.00;;;16.20
19666;BMP180;9980;51.020;7.772;2022-11-15T10:03:14;96819.00;;;16.30
19666;BMP180;9980;51.020;7.772;2022-11-15T10:05:45;96833.00;;;16.40
19666;BMP180;9980;51.020;7.772;2022-11-15T10:11:32;96824.00;;;16.40
19666;BMP180;9980;51.020;7.772;2022-11-15T10:14:20;96828.00;;;16.40
19666;BMP180;9980;51.020;7.772;2022-11-15T10:17:18;96828.00;;;16.50
19666;BMP180;9980;51.020;7.772;2022-11-15T10:19:56;96804.00;;;16.60
19666;BMP180;9980;51.020;7.772;2022-11-15T10:22:52;96810.00;;;16.60
19666;BMP180;9980;51.020;7.772;2022-11-15T10:25:27;96808.00;;;16.70
19666;BMP180;9980;51.020;7.772;2022-11-15T10:28:14;96798.00;;;16.80
19666;BMP180;9980;51.020;7.772;2022-11-15T10:30:48;96803.00;;;16.80
19666;BMP180;9980;51.020;7.772;2022-11-15T10:33:36;96792.00;;;16.80
19666;BMP180;9980;51.020;7.772;2022-11-15T10:36:19;96791.00;;;16.90
19666;BMP180;9980;51.020;7.772;2022-11-15T10:41:20;96791.00;;;16.90
19666;BMP180;9980;51.020;7.772;2022-11-15T10:44:20;96787.00;;;16.90
19666;BMP180;9980;51.020;7.772;2022-11-15T10:47:26;96783.00;;;16.90
19666;BMP180;9980;51.020;7.772;2022-11-15T10:50:06;96782.00;;;17.00
19666;BMP180;9980;51.020;7.772;2022-11-15T10:52:36;96771.00;;;17.00
19666;BMP180;9980;51.020;7.772;2022-11-15T10:55:21;96762.00;;;17.00
19666;BMP180;9980;51.020;7.772;2022-11-15T10:58:20;96761.00;;;17.00
19666;BMP180;9980;51.020;7.772;2022-11-15T11:00:47;96748.00;;;17.10
19666;BMP180;9980;51.020;7.772;2022-11-15T11:03:35;96745.00;;;17.00
19666;BMP180;9980;51.020;7.772;2022-11-15T11:06:16;96759.00;;;17.00
19666;BMP180;9980;51.020;7.772;2022-11-15T11:09:10;96726.00;;;17.10
19666;BMP180;9980;51.020;7.772;2022-11-15T11:11:50;96756.00;;;17.10
19666;BMP180;9980;51.020;7.772;2022-11-15T11:17:19;96752.00;;;17.10
19666;BMP180;9980;51.020;7.772;2022-11-15T11:20:08;96743.00;;;17.20
19666;BMP180;9980;51.020;7.772;2022-11-15T11:23:03;96748.00;;;17.20
19666;BMP180;9980;51.020;7.772;2022-11-15T11:25:56;96726.00;;;17.20
19666;BMP180;9980;51.020;7.772;2022-11-15T11:28:42;96748.00;;;17.20
19666;BMP180;9980;51.020;7.772;2022-11-15T11:31:32;96741.00;;;17.30
19666;BMP180;9980;51.020;7.772;2022-11-15T11:37:31;96730.00;;;17.30
19666;BMP180;9980;51.020;7.772;2022-11-15T11:40:30;96721.00;;;17.30
19666;BMP180;9980;51.020;7.772;2022-11-15T11:43:41;96717.00;;;17.30
19666;BMP180;9980;51.020;7.772;2022-11-15T11:46:38;96711.00;;;17.30
19666;BMP180;9980;51.020;7.772;2022-11-15T11:49:20;96704.00;;;17.30
19666;BMP180;9980;51.020;7.772;2022-11-15T11:52:23;96713.00;;;17.30
19666;BMP180;9980;51.020;7.772;2022-11-15T11:57:46;96718.00;;;17.30
19666;BMP180;9980;51.020;7.772;2022-11-15T12:03:09;96699.00;;;17.40
19666;BMP180;9980;51.020;7.772;2022-11-15T12:05:41;96701.00;;;17.40
19666;BMP180;9980;51.020;7.772;2022-11-15T12:08:35;96687.00;;;17.30
19666;BMP180;9980;51.020;7.772;2022-11-15T12:11:30;96695.00;;;17.30
19666;BMP180;9980;51.020;7.772;2022-11-15T12:14:09;96697.00;;;17.30
19666;BMP180;9980;51.020;7.772;2022-11-15T12:16:42;96699.00;;;17.30
19666;BMP180;9980;51.020;7.772;2022-11-15T12:19:08;96689.00;;;17.30
19666;BMP180;9980;51.020;7.772;2022-11-15T12:24:33;96699.00;;;17.20
19666;BMP180;9980;51.020;7.772;2022-11-15T12:27:25;96698.00;;;17.20
19666;BMP180;9980;51.020;7.772;2022-11-15T12:30:03;96693.00;;;17.20
19666;BMP180;9980;51.020;7.772;2022-11-15T12:32:39;96680.00;;;17.20
19666;BMP180;9980;51.020;7.772;2022-11-15T12:35:56;96685.00;;;17.20
19666;BMP180;9980;51.020;7.772;2022-11-15T12:38:59;96683.00;;;17.20
19666;BMP180;9980;51.020;7.772;2022-11-15T12:41:35;96673.00;;;17.20
19666;BMP180;9980;51.020;7.772;2022-11-15T12:44:03;96672.00;;;17.20
19666;BMP180;9980;51.020;7.772;2022-11-15T12:59:59;96645.00;;;17.30
19666;BMP180;9980;51.020;7.772;2022-11-15T13:02:43;96644.00;;;17.30
19666;BMP180;9980;51.020;7.772;2022-11-15T13:26:03;96609.00;;;17.40
19666;BMP180;9980;51.020;7.772;2022-11-15T13:28:37;96599.00;;;17.50
19666;BMP180;9980;51.020;7.772;2022-11-15T13:31:40;96602.00;;;17.40
19666;BMP180;9980;51.020;7.772;2022-11-15T13:34:36;96588.00;;;17.40
19666;BMP180;9980;51.020;7.772;2022-11-15T13:39:48;96574.00;;;17.50
19666;BMP180;9980;51.020;7.772;2022-11-15T13:42:18;96572.00;;;17.50
19666;BMP180;9980;51.020;7.772;2022-11-15T13:45:02;96569.00;;;17.40
19666;BMP180;9980;51.020;7.772;2022-11-15T13:47:29;96563.00;;;17.50
19666;BMP180;9980;51.020;7.772;2022-11-15T13:49:58;96553.00;;;17.50
19666;BMP180;9980;51.020;7.772;2022-11-15T13:52:34;96556.00;;;17.40
19666;BMP180;9980;51.020;7.772;2022-11-15T13:55:18;96548.00;;;17.40
19666;BMP180;9980;51.020;7.772;2022-11-15T13:57:58;96568.00;;;17.40
19666;BMP180;9980;51.020;7.772;2022-11-15T14:00:44;96566.00;;;17.40
19666;BMP180;9980;51.020;7.772;2022-11-15T14:03:24;96567.00;;;17.40
19666;BMP180;9980;51.020;7.772;2022-11-15T14:06:16;96550.00;;;17.40
19666;BMP180;9980;51.020;7.772;2022-11-15T14:11:49;96546.00;;;17.40
19666;BMP180;9980;51.020;7.772;2022-11-15T14:14:15;96559.00;;;17.40
19666;BMP180;9980;51.020;7.772;2022-11-15T14:16:44;96549.00;;;17.40
19666;BMP180;9980;51.020;7.772;2022-11-15T14:24:44;96533.00;;;17.30
19666;BMP180;9980;51.020;7.772;2022-11-15T14:27:27;96533.00;;;17.20
19666;BMP180;9980;51.020;7.772;2022-11-15T14:29:54;96522.00;;;17.30
19666;BMP180;9980;51.020;7.772;2022-11-15T14:32:27;96516.00;;;17.20
19666;BMP180;9980;51.020;7.772;2022-11-15T14:34:59;96516.00;;;17.20
19666;BMP180;9980;51.020;7.772;2022-11-15T14:37:33;96511.00;;;17.20
19666;BMP180;9980;51.020;7.772;2022-11-15T14:40:05;96486.00;;;17.20
19666;BMP180;9980;51.020;7.772;2022-11-15T14:42:32;96486.00;;;17.10
19666;BMP180;9980;51.020;7.772;2022-11-15T14:44:58;96492.00;;;17.10
19666;BMP180;9980;51.020;7.772;2022-11-15T14:47:24;96488.00;;;17.10
19666;BMP180;9980;51.020;7.772;2022-11-15T14:49:51;96488.00;;;17.10
19666;BMP180;9980;51.020;7.772;2022-11-15T14:52:27;96477.00;;;17.00
19666;BMP180;9980;51.020;7.772;2022-11-15T14:54:59;96478.00;;;17.00
19666;BMP180;9980;51.020;7.772;2022-11-15T14:57:27;96466.00;;;17.00
19666;BMP180;9980;51.020;7.772;2022-11-15T14:59:53;96456.00;;;16.90
19666;BMP180;9980;51.020;7.772;2022-11-15T15:02:24;96470.00;;;16.90
19666;BMP180;9980;51.020;7.772;2022-11-15T15:04:51;96487.00;;;16.90
19666;BMP180;9980;51.020;7.772;2022-11-15T15:07:18;96466.00;;;16.80
19666;BMP180;9980;51.020;7.772;2022-11-15T15:09:46;96460.00;;;16.80
19666;BMP180;9980;51.020;7.772;2022-11-15T15:12:21;96457.00;;;16.80
19666;BMP180;9980;51.020;7.772;2022-11-15T15:14:49;96458.00;;;16.80
19666;BMP180;9980;51.020;7.772;2022-11-15T15:17:17;96453.00;;;16.70
19666;BMP180;9980;51.020;7.772;2022-11-15T15:19:43;96437.00;;;16.70
19666;BMP180;9980;51.020;7.772;2022-11-15T15:22:19;96448.00;;;16.70
19666;BMP180;9980;51.020;7.772;2022-11-15T15:24:48;96437.00;;;16.70
19666;BMP180;9980;51.020;7.772;2022-11-15T15:27:14;96434.00;;;16.60
19666;BMP180;9980;51.020;7.772;2022-11-15T15:29:41;96433.00;;;16.60
19666;BMP180;9980;51.020;7.772;2022-11-15T15:32:09;96428.00;;;16.60
19666;BMP180;9980;51.020;7.772;2022-11-15T15:34:36;96432.00;;;16.60
19666;BMP180;9980;51.020;7.772;2022-11-15T15:39:54;96422.00;;;16.50
19666;BMP180;9980;51.020;7.772;2022-11-15T15:42:22;96412.00;;;16.50
19666;BMP180;9980;51.020;7.772;2022-11-15T15:44:50;96423.00;;;16.40
19666;BMP180;9980;51.020;7.772;2022-11-15T15:47:22;96424.00;;;16.40
19666;BMP180;9980;51.020;7.772;2022-11-15T15:49:50;96426.00;;;16.40
19666;BMP180;9980;51.020;7.772;2022-11-15T15:52:16;96418.00;;;16.40
19666;BMP180;9980;51.020;7.772;2022-11-15T15:54:43;96420.00;;;16.40
19666;BMP180;9980;51.020;7.772;2022-11-15T15:57:13;96432.00;;;16.40
19666;BMP180;9980;51.020;7.772;2022-11-15T15:59:40;96416.00;;;16.40
19666;BMP180;9980;51.020;7.772;2022-11-15T16:02:11;96421.00;;;16.30
19666;BMP180;9980;51.020;7.772;2022-11-15T16:04:37;96404.00;;;16.30
19666;BMP180;9980;51.020;7.772;2022-11-15T16:07:04;96422.00;;;16.30
19666;BMP180;9980;51.020;7.772;2022-11-15T16:09:30;96427.00;;;16.30
19666;BMP180;9980;51.020;7.772;2022-11-15T16:12:15;96414.00;;;16.30
19666;BMP180;9980;51.020;7.772;2022-11-15T16:14:42;96406.00;;;16.20
19666;BMP180;9980;51.020;7.772;2022-11-15T16:17:19;96416.00;;;16.20
19666;BMP180;9980;51.020;7.772;2022-11-15T16:19:46;96414.00;;;16.20
19666;BMP180;9980;51.020;7.772;2022-11-15T16:22:13;96409.00;;;16.20
19666;BMP180;9980;51.020;7.772;2022-11-15T16:24:39;96400.00;;;16.20
19666;BMP180;9980;51.020;7.772;2022-11-15T16:27:15;96405.00;;;16.10
19666;BMP180;9980;51.020;7.772;2022-11-15T16:29:41;96420.00;;;16.10
19666;BMP180;9980;51.020;7.772;2022-11-15T16:32:08;96413.00;;;16.10
19666;BMP180;9980;51.020;7.772;2022-11-15T16:34:34;96405.00;;;16.10
19666;BMP180;9980;51.020;7.772;2022-11-15T16:37:23;96403.00;;;16.10
19666;BMP180;9980;51.020;7.772;2022-11-15T16:39:50;96412.00;;;16.10
19666;BMP180;9980;51.020;7.772;2022-11-15T16:42:16;96406.00;;;16.10
19666;BMP180;9980;51.020;7.772;2022-11-15T16:44:42;96394.00;;;16.10
19666;BMP180;9980;51.020;7.772;2022-11-15T16:47:19;96386.00;;;16.00
19666;BMP180;9980;51.020;7.772;2022-11-15T16:49:45;96389.00;;;16.00
19666;BMP180;9980;51.020;7.772;2022-11-15T16:52:12;96376.00;;;16.00
19666;BMP180;9980;51.020;7.772;2022-11-15T16:54:41;96376.00;;;16.00
19666;BMP180;9980;51.020;7.772;2022-11-15T16:57:09;96394.00;;;16.00
19666;BMP180;9980;51.020;7.772;2022-11-15T16:59:36;96384.00;;;16.00
19666;BMP180;9980;51.020;7.772;2022-11-15T17:02:10;96386.00;;;16.00
19666;BMP180;9980;51.020;7.772;2022-11-15T17:04:37;96379.00;;;16.00
19666;BMP180;9980;51.020;7.772;2022-11-15T17:07:03;96386.00;;;16.00
19666;BMP180;9980;51.020;7.772;2022-11-15T17:09:30;96386.00;;;15.90
19666;BMP180;9980;51.020;7.772;2022-11-15T17:11:57;96371.00;;;15.90
19666;BMP180;9980;51.020;7.772;2022-11-15T17:14:24;96385.00;;;15.90
19666;BMP180;9980;51.020;7.772;2022-11-15T17:16:50;96379.00;;;15.90
19666;BMP180;9980;51.020;7.772;2022-11-15T17:19:19;96382.00;;;15.90
19666;BMP180;9980;51.020;7.772;2022-11-15T17:21:47;96390.00;;;15.90
19666;BMP180;9980;51.020;7.772;2022-11-15T17:24:16;96376.00;;;15.90
19666;BMP180;9980;51.020;7.772;2022-11-15T17:26:43;96371.00;;;15.80